Time;durP1;ratioP1;P1;durP2;ratioP2;P2;SDS_P1;SDS_P2;PMS_P1;PMS_P2;Temp;Humidity;BMP_temperature;BMP_pressure;BME280_temperature;BME280_humidity;BME280_pressure;Samples;Min_cycle;Max_cycle;Signal;HPM_P1;HPM_P2
2023/06/12 00:01:40;;;;;;;8.73;6.90;;;23.40;1.00;;;;;;5029980;28;22229;-77
2023/06/12 00:04:06;;;;;;;8.07;6.77;;;22.90;1.00;;;;;;5031131;28;20192;-77
2023/06/12 00:06:33;;;;;;;9.03;7.07;;;22.90;1.00;;;;;;5030047;28;20440;-77
2023/06/12 00:08:59;;;;;;;8.53;7.13;;;22.90;1.00;;;;;;5030131;28;20456;-75
2023/06/12 00:11:25;;;;;;;10.37;6.73;;;24.40;1.00;;;;;;5029174;28;21035;-76
2023/06/12 00:13:51;;;;;;;15.10;7.23;;;22.70;1.00;;;;;;5029197;28;20436;-76
2023/06/12 00:16:16;;;;;;;8.20;6.90;;;22.80;1.00;;;;;;5030517;28;20949;-76
2023/06/12 00:18:43;;;;;;;9.27;7.40;;;22.70;1.00;;;;;;5031052;28;20185;-76
2023/06/12 00:21:10;;;;;;;11.20;7.00;;;22.70;1.00;;;;;;5023152;28;20272;-77
2023/06/12 00:23:40;;;;;;;7.57;6.60;;;22.60;1.00;;;;;;5020704;28;20428;-77
2023/06/12 00:26:05;;;;;;;8.97;7.27;;;22.60;1.00;;;;;;5025689;28;20515;-77
2023/06/12 00:28:31;;;;;;;8.90;7.50;;;22.50;1.00;;;;;;5028298;28;20530;-77
2023/06/12 00:30:57;;;;;;;8.40;7.10;;;22.50;1.00;;;;;;5030233;28;20260;-77
2023/06/12 00:33:23;;;;;;;8.43;6.83;;;22.50;1.00;;;;;;5027411;28;21037;-76
2023/06/12 00:35:49;;;;;;;12.50;7.40;;;22.40;1.00;;;;;;5029846;28;20216;-76
2023/06/12 00:38:15;;;;;;;9.70;7.30;;;22.40;1.00;;;;;;5030693;28;20185;-78
2023/06/12 00:40:41;;;;;;;9.33;6.83;;;22.40;1.00;;;;;;5028937;28;20268;-77
2023/06/12 00:43:08;;;;;;;11.10;7.07;;;22.30;1.00;;;;;;5030177;28;20999;-77
2023/06/12 00:45:35;;;;;;;8.07;7.10;;;22.30;1.00;;;;;;5030667;28;20483;-77
2023/06/12 00:48:00;;;;;;;8.60;7.00;;;22.30;1.00;;;;;;5030302;28;20489;-77
2023/06/12 00:50:27;;;;;;;7.93;6.60;;;22.30;1.00;;;;;;5030422;28;20424;-77
2023/06/12 00:52:54;;;;;;;8.23;6.97;;;22.20;1.00;;;;;;5029942;28;20200;-76
2023/06/12 00:55:20;;;;;;;8.20;6.83;;;22.20;1.00;;;;;;5029114;28;20509;-77
2023/06/12 00:57:47;;;;;;;8.10;6.80;;;22.20;1.00;;;;;;5022677;28;20458;-76
2023/06/12 01:00:14;;;;;;;12.90;7.57;;;22.20;1.00;;;;;;5030368;28;20189;-77
2023/06/12 01:02:47;;;;;;;11.00;7.10;;;22.10;1.00;;;;;;5028577;28;20470;-77
2023/06/12 01:05:19;;;;;;;8.40;7.13;;;22.10;1.00;;;;;;5030616;28;20474;-77
2023/06/12 01:08:07;;;;;;;9.47;7.57;;;22.10;1.00;;;;;;5030623;28;20534;-77
2023/06/12 01:10:45;;;;;;;14.73;7.30;;;22.00;1.00;;;;;;5023777;28;20541;-77
2023/06/12 01:13:12;;;;;;;7.80;6.73;;;22.00;1.00;;;;;;5030103;28;20427;-76
2023/06/12 01:15:38;;;;;;;9.90;7.67;;;22.00;1.00;;;;;;5030112;28;21182;-77
2023/06/12 01:18:06;;;;;;;9.30;7.43;;;21.90;1.00;;;;;;5028638;28;20515;-77
2023/06/12 01:20:33;;;;;;;8.10;7.30;;;21.90;1.00;;;;;;5029491;28;21004;-78
2023/06/12 01:23:02;;;;;;;12.93;7.10;;;24.30;1.00;;;;;;5029864;28;20551;-77
2023/06/12 01:26:05;;;;;;;11.40;7.03;;;21.80;1.00;;;;;;5029380;28;20470;-77
2023/06/12 01:29:12;;;;;;;10.30;7.33;;;21.80;1.00;;;;;;5023607;28;20435;-77
2023/06/12 01:31:43;;;;;;;9.37;7.10;;;21.80;1.00;;;;;;5041381;28;20844;-77
2023/06/12 01:34:21;;;;;;;8.80;6.90;;;21.80;1.00;;;;;;5029630;28;20443;-77
2023/06/12 01:36:57;;;;;;;10.13;7.50;;;24.20;1.00;;;;;;5027896;28;20497;-77
2023/06/12 01:39:25;;;;;;;10.37;7.00;;;21.70;1.00;;;;;;5022065;28;20971;-77
2023/06/12 01:41:52;;;;;;;10.40;7.27;;;21.70;1.00;;;;;;5029454;28;20503;-76
2023/06/12 01:44:20;;;;;;;10.00;7.73;;;21.60;1.00;;;;;;5030242;28;21253;-77
2023/06/12 01:46:46;;;;;;;10.77;7.43;;;21.60;1.00;;;;;;5030003;28;20427;-77
2023/06/12 01:49:11;;;;;;;9.90;7.67;;;21.60;1.00;;;;;;5028002;28;20443;-77
2023/06/12 01:51:37;;;;;;;9.10;6.93;;;21.50;1.00;;;;;;5029386;28;20177;-77
2023/06/12 01:54:02;;;;;;;9.20;7.10;;;21.50;1.00;;;;;;5029266;28;20212;-77
2023/06/12 01:56:28;;;;;;;9.57;7.73;;;21.50;1.00;;;;;;5023724;28;20197;-77
2023/06/12 01:58:54;;;;;;;9.90;7.47;;;21.50;1.00;;;;;;5026575;28;20185;-77
2023/06/12 02:01:20;;;;;;;10.63;7.23;;;21.40;1.00;;;;;;5029689;28;20246;-77
2023/06/12 02:03:46;;;;;;;8.77;7.20;;;21.40;1.00;;;;;;5028399;28;20851;-77
2023/06/12 02:06:14;;;;;;;10.47;7.60;;;21.40;1.00;;;;;;5028605;28;20517;-77
2023/06/12 02:08:40;;;;;;;8.40;6.93;;;21.30;1.00;;;;;;5028267;28;20186;-77
2023/06/12 02:11:06;;;;;;;7.87;6.80;;;21.30;1.00;;;;;;5027209;28;20432;-77
2023/06/12 02:13:31;;;;;;;9.37;7.33;;;21.30;1.00;;;;;;5029436;28;20424;-77
2023/06/12 02:15:57;;;;;;;10.73;7.90;;;21.30;1.00;;;;;;5028948;28;20211;-76
2023/06/12 02:18:22;;;;;;;9.63;7.00;;;21.30;1.00;;;;;;5029293;28;20525;-76
2023/06/12 02:20:49;;;;;;;8.60;6.80;;;21.30;1.00;;;;;;5027540;28;20227;-77
2023/06/12 02:23:14;;;;;;;9.27;7.50;;;21.30;1.00;;;;;;5028476;28;20250;-77
2023/06/12 02:25:40;;;;;;;9.50;7.60;;;21.20;1.00;;;;;;5028303;28;20456;-77
2023/06/12 02:28:06;;;;;;;11.67;7.40;;;21.20;1.00;;;;;;5035539;28;20212;-78
2023/06/12 02:30:32;;;;;;;9.53;7.00;;;21.10;1.00;;;;;;5031741;28;20177;-77
2023/06/12 02:32:57;;;;;;;8.47;7.57;;;21.20;1.00;;;;;;5026806;28;20447;-76
2023/06/12 02:35:23;;;;;;;12.90;7.63;;;21.20;1.00;;;;;;5028674;28;20706;-77
2023/06/12 02:37:48;;;;;;;12.47;8.13;;;21.10;1.00;;;;;;5028809;28;20192;-76
2023/06/12 02:40:14;;;;;;;8.97;7.90;;;21.00;1.00;;;;;;5027768;28;20200;-77
2023/06/12 02:42:39;;;;;;;11.00;7.40;;;21.10;1.00;;;;;;5029141;28;20201;-76
2023/06/12 02:45:05;;;;;;;9.57;7.13;;;21.10;1.00;;;;;;5028610;28;20662;-77
2023/06/12 02:47:31;;;;;;;9.73;7.20;;;21.10;1.00;;;;;;5029074;28;20185;-77
2023/06/12 02:49:56;;;;;;;10.03;7.90;;;21.10;1.00;;;;;;5027713;28;21079;-76
2023/06/12 02:52:22;;;;;;;12.10;8.00;;;21.00;1.00;;;;;;5023355;28;20655;-77
2023/06/12 02:54:47;;;;;;;8.00;7.20;;;21.00;1.00;;;;;;5027293;28;20220;-76
2023/06/12 02:57:14;;;;;;;8.83;7.73;;;21.00;1.00;;;;;;5027976;28;20239;-77
2023/06/12 02:59:39;;;;;;;7.03;6.27;;;21.00;1.00;;;;;;5027615;28;20188;-75
2023/06/12 03:02:05;;;;;;;10.00;8.00;;;21.00;1.00;;;;;;5026649;28;20460;-76
2023/06/12 03:04:32;;;;;;;11.77;7.30;;;20.90;1.00;;;;;;5028438;28;20205;-76
2023/06/12 03:06:58;;;;;;;9.40;7.57;;;20.90;1.00;;;;;;5028465;28;20192;-75
2023/06/12 03:09:24;;;;;;;7.83;6.83;;;20.90;1.00;;;;;;5028781;28;20800;-76
2023/06/12 03:11:51;;;;;;;9.07;7.50;;;20.90;1.00;;;;;;5028593;28;20208;-76
2023/06/12 03:14:21;;;;;;;11.03;7.77;;;20.90;1.00;;;;;;5028436;28;20627;-76
2023/06/12 03:16:48;;;;;;;12.30;7.80;;;20.90;1.00;;;;;;5027705;28;20459;-76
2023/06/12 03:19:14;;;;;;;10.93;8.27;;;20.90;1.00;;;;;;5027993;28;20470;-77
2023/06/12 03:21:39;;;;;;;9.60;7.73;;;20.90;1.00;;;;;;5021716;28;20482;-76
2023/06/12 03:24:05;;;;;;;9.50;7.73;;;20.90;1.00;;;;;;5026408;28;20937;-76
2023/06/12 03:26:33;;;;;;;9.87;8.20;;;20.90;1.00;;;;;;5027493;28;20552;-76
2023/06/12 03:29:00;;;;;;;9.77;8.23;;;20.90;1.00;;;;;;5028116;28;20173;-75
2023/06/12 03:31:26;;;;;;;9.97;7.60;;;20.80;1.00;;;;;;5028104;28;20938;-75
2023/06/12 03:33:54;;;;;;;11.10;7.73;;;20.80;1.00;;;;;;5027656;28;20500;-76
2023/06/12 03:36:21;;;;;;;9.73;7.40;;;20.80;1.00;;;;;;5022788;28;20510;-76
2023/06/12 03:38:46;;;;;;;9.17;7.80;;;20.80;1.00;;;;;;5028230;28;20435;-76
2023/06/12 03:41:12;;;;;;;9.37;7.43;;;20.80;1.00;;;;;;5027130;28;20455;-75
2023/06/12 03:43:37;;;;;;;9.00;7.57;;;20.80;1.00;;;;;;5028458;28;20339;-76
2023/06/12 03:46:04;;;;;;;10.10;7.67;;;20.70;1.00;;;;;;5026322;28;20216;-77
2023/06/12 03:48:29;;;;;;;8.23;7.30;;;20.70;1.00;;;;;;5027413;28;20263;-77
2023/06/12 03:50:55;;;;;;;9.60;8.00;;;20.70;1.00;;;;;;5027724;28;20482;-77
2023/06/12 03:53:20;;;;;;;9.37;7.80;;;20.70;1.00;;;;;;5032004;28;20193;-77
2023/06/12 03:55:46;;;;;;;8.83;7.63;;;20.70;1.00;;;;;;5031141;28;20232;-77
2023/06/12 03:58:16;;;;;;;12.33;7.77;;;21.90;1.00;;;;;;5029999;28;20622;-77
2023/06/12 04:00:43;;;;;;;9.87;7.60;;;20.80;1.00;;;;;;5028364;28;20216;-77
2023/06/12 04:03:09;;;;;;;9.63;7.97;;;20.80;1.00;;;;;;5029151;28;20572;-76
2023/06/12 04:05:34;;;;;;;10.60;8.30;;;20.80;1.00;;;;;;5031484;28;20842;-76
2023/06/12 04:08:00;;;;;;;8.50;7.60;;;20.80;1.00;;;;;;5031496;28;20188;-76
2023/06/12 04:10:25;;;;;;;11.20;7.80;;;20.80;1.00;;;;;;5031661;28;20219;-77
2023/06/12 04:12:50;;;;;;;8.83;7.70;;;20.80;1.00;;;;;;5030468;28;20182;-77
2023/06/12 04:15:16;;;;;;;9.93;7.90;;;20.90;1.00;;;;;;5029341;28;20253;-77
2023/06/12 04:17:42;;;;;;;9.63;7.73;;;20.90;1.00;;;;;;5029439;28;20535;-77
2023/06/12 04:20:08;;;;;;;10.63;8.07;;;20.90;1.00;;;;;;5030777;28;20208;-77
2023/06/12 04:22:33;;;;;;;11.20;7.77;;;20.90;1.00;;;;;;5030851;28;20216;-77
2023/06/12 04:25:01;;;;;;;9.53;7.63;;;21.00;1.00;;;;;;5030616;28;20517;-75
2023/06/12 04:27:29;;;;;;;8.90;7.77;;;21.00;1.00;;;;;;5031632;28;20231;-77
2023/06/12 04:29:57;;;;;;;9.00;7.43;;;21.00;1.00;;;;;;5029441;28;20811;-77
2023/06/12 04:32:23;;;;;;;9.53;7.03;;;21.10;1.00;;;;;;5029025;28;20522;-77
2023/06/12 04:34:49;;;;;;;9.70;7.30;;;21.10;1.00;;;;;;5029456;28;20852;-77
2023/06/12 04:37:18;;;;;;;9.53;7.30;;;21.10;1.00;;;;;;5030448;28;20478;-77
2023/06/12 04:39:45;;;;;;;11.10;7.23;;;21.20;1.00;;;;;;5030866;28;20462;-77
2023/06/12 04:42:10;;;;;;;10.53;7.87;;;21.20;1.00;;;;;;5030419;28;20456;-77
2023/06/12 04:44:39;;;;;;;9.90;7.43;;;21.30;1.00;;;;;;5030887;28;20569;-76
2023/06/12 04:47:08;;;;;;;8.07;7.03;;;21.30;1.00;;;;;;5028939;28;20825;-76
2023/06/12 04:49:35;;;;;;;9.20;7.90;;;21.40;1.00;;;;;;5030517;28;20473;-77
2023/06/12 04:52:03;;;;;;;11.07;7.37;;;21.40;1.00;;;;;;5030629;28;20424;-76
2023/06/12 04:54:35;;;;;;;9.50;7.77;;;21.40;1.00;;;;;;5030630;28;20554;-76
2023/06/12 04:57:03;;;;;;;10.80;7.70;;;21.50;1.00;;;;;;5027377;28;20514;-76
2023/06/12 04:59:30;;;;;;;9.63;7.63;;;21.50;1.00;;;;;;5030859;28;21236;-76
2023/06/12 05:01:57;;;;;;;12.80;8.17;;;21.60;1.00;;;;;;5027139;28;20475;-76
2023/06/12 05:04:23;;;;;;;9.23;7.77;;;21.60;1.00;;;;;;5030240;28;20448;-77
2023/06/12 05:06:49;;;;;;;9.53;7.47;;;21.60;1.00;;;;;;5032001;28;20430;-79
2023/06/12 05:09:14;;;;;;;9.17;7.57;;;21.60;1.00;;;;;;5031979;28;20251;-77
2023/06/12 05:11:40;;;;;;;9.03;7.37;;;21.70;1.00;;;;;;5030547;28;20929;-77
2023/06/12 05:14:06;;;;;;;8.47;7.50;;;21.70;1.00;;;;;;5030512;28;20205;-77
2023/06/12 05:16:32;;;;;;;9.57;8.00;;;21.80;1.00;;;;;;5027157;28;20181;-77
2023/06/12 05:18:57;;;;;;;9.97;8.03;;;21.80;1.00;;;;;;5030577;28;20185;-78
2023/06/12 05:21:23;;;;;;;9.90;7.70;;;21.90;1.00;;;;;;5028620;28;20434;-78
2023/06/12 05:23:48;;;;;;;14.63;7.87;;;22.00;1.00;;;;;;5028813;28;20339;-78
2023/06/12 05:26:14;;;;;;;10.57;7.80;;;22.00;1.00;;;;;;5028448;28;21396;-77
2023/06/12 05:28:39;;;;;;;11.20;7.30;;;22.10;1.00;;;;;;5035841;28;20185;-75
2023/06/12 05:31:05;;;;;;;15.20;7.60;;;22.10;1.00;;;;;;5026861;28;20189;-77
2023/06/12 05:33:32;;;;;;;8.87;7.77;;;22.10;1.00;;;;;;5028894;28;20321;-77
2023/06/12 05:35:58;;;;;;;8.50;7.43;;;22.10;1.00;;;;;;5029699;28;20284;-77
2023/06/12 05:38:23;;;;;;;10.33;7.50;;;22.20;1.00;;;;;;5029650;28;20523;-78
2023/06/12 05:40:49;;;;;;;8.50;7.40;;;22.20;1.00;;;;;;5029805;28;20185;-78
2023/06/12 05:43:14;;;;;;;10.37;7.80;;;22.30;1.00;;;;;;5025945;28;20631;-77
2023/06/12 05:45:40;;;;;;;9.67;7.40;;;22.30;1.00;;;;;;5027349;28;20193;-77
2023/06/12 05:48:05;;;;;;;9.60;7.30;;;22.30;1.00;;;;;;5025386;28;20255;-76
2023/06/12 05:50:31;;;;;;;10.00;7.90;;;22.30;1.00;;;;;;5030574;28;20201;-78
2023/06/12 05:52:56;;;;;;;12.10;7.93;;;22.40;1.00;;;;;;5031547;28;20268;-77
2023/06/12 05:55:22;;;;;;;11.37;7.80;;;22.40;1.00;;;;;;5027901;28;20343;-78
2023/06/12 05:57:47;;;;;;;10.07;7.47;;;22.50;1.00;;;;;;5029267;28;20241;-78
2023/06/12 06:00:14;;;;;;;11.93;8.90;;;22.60;1.00;;;;;;5026908;28;20185;-78
2023/06/12 06:02:42;;;;;;;10.03;8.10;;;22.60;1.00;;;;;;5023420;28;20208;-78
2023/06/12 06:05:09;;;;;;;12.83;7.83;;;22.60;1.00;;;;;;5027200;28;20464;-78
2023/06/12 06:07:35;;;;;;;9.80;7.30;;;23.00;1.00;;;;;;5028872;28;20482;-78
2023/06/12 06:10:01;;;;;;;9.73;7.97;;;22.80;1.00;;;;;;5029168;28;20956;-77
2023/06/12 06:12:26;;;;;;;11.23;7.97;;;22.80;1.00;;;;;;5028914;28;20181;-78
2023/06/12 06:14:52;;;;;;;18.30;8.20;;;22.80;1.00;;;;;;5028074;28;20219;-77
2023/06/12 06:17:19;;;;;;;9.30;8.07;;;22.90;1.00;;;;;;5028257;28;20652;-78
2023/06/12 06:19:44;;;;;;;10.43;8.37;;;22.90;1.00;;;;;;5028914;28;20181;-78
2023/06/12 06:22:10;;;;;;;9.20;8.10;;;22.90;1.00;;;;;;5028430;28;20495;-78
2023/06/12 06:24:35;;;;;;;7.90;7.10;;;23.10;1.00;;;;;;5028780;28;20288;-77
2023/06/12 06:27:02;;;;;;;9.37;7.80;;;23.20;1.00;;;;;;5027176;28;20211;-77
2023/06/12 06:29:27;;;;;;;9.00;8.00;;;23.20;1.00;;;;;;5028232;28;20647;-74
2023/06/12 06:31:53;;;;;;;9.80;7.97;;;23.30;1.00;;;;;;5027828;28;20463;-78
2023/06/12 06:34:18;;;;;;;12.07;8.47;;;23.40;1.00;;;;;;5030209;28;20283;-77
2023/06/12 06:36:44;;;;;;;10.43;7.37;;;23.40;1.00;;;;;;5028155;28;20896;-74
2023/06/12 06:39:09;;;;;;;8.97;7.63;;;23.50;1.00;;;;;;5028533;28;20189;-73
2023/06/12 06:41:35;;;;;;;14.17;8.57;;;23.60;1.00;;;;;;5029139;28;20181;-74
2023/06/12 06:44:00;;;;;;;9.03;7.80;;;23.60;1.00;;;;;;5029165;28;20195;-74
2023/06/12 06:46:26;;;;;;;8.57;7.77;;;23.70;1.00;;;;;;5028394;28;20176;-74
2023/06/12 06:48:51;;;;;;;9.33;8.10;;;23.90;1.00;;;;;;5028941;28;20188;-73
2023/06/12 06:51:17;;;;;;;12.50;9.27;;;23.90;1.00;;;;;;5026973;28;20177;-74
2023/06/12 06:53:43;;;;;;;13.37;8.23;;;24.00;1.00;;;;;;5027353;28;20750;-75
2023/06/12 06:56:08;;;;;;;9.13;8.20;;;24.00;1.00;;;;;;5026375;28;20824;-73
2023/06/12 06:58:34;;;;;;;9.20;8.10;;;24.10;1.00;;;;;;5028613;28;20186;-74
2023/06/12 07:01:00;;;;;;;12.90;7.83;;;24.20;1.00;;;;;;5027814;28;20196;-73
2023/06/12 07:03:27;;;;;;;11.10;8.60;;;24.20;1.00;;;;;;5028776;28;20197;-74
2023/06/12 07:05:53;;;;;;;9.40;7.73;;;24.30;1.00;;;;;;5028962;28;20279;-73
2023/06/12 07:08:18;;;;;;;10.53;8.20;;;24.40;1.00;;;;;;5027571;28;20829;-73
2023/06/12 07:10:44;;;;;;;12.40;7.90;;;24.60;1.00;;;;;;5028665;28;20231;-74
2023/06/12 07:13:10;;;;;;;9.60;8.07;;;24.80;1.00;;;;;;5028680;28;20263;-73
2023/06/12 07:15:35;;;;;;;10.40;8.40;;;24.70;1.00;;;;;;5028956;28;20292;-73
2023/06/12 07:18:01;;;;;;;9.33;8.30;;;24.80;1.00;;;;;;5025671;28;20215;-69
2023/06/12 07:20:27;;;;;;;14.13;8.10;;;24.90;1.00;;;;;;5027925;28;20197;-71
2023/06/12 07:22:52;;;;;;;10.33;7.97;;;25.10;1.00;;;;;;5026291;28;20288;-71
2023/06/12 07:25:18;;;;;;;14.43;8.23;;;25.30;1.00;;;;;;5027164;28;20209;-75
2023/06/12 07:27:43;;;;;;;10.30;8.40;;;25.40;1.00;;;;;;5032281;28;20648;-72
2023/06/12 07:30:09;;;;;;;11.10;8.03;;;25.40;1.00;;;;;;5031982;28;20208;-76
2023/06/12 07:32:35;;;;;;;11.17;8.47;;;25.40;1.00;;;;;;5031155;28;20180;-77
2023/06/12 07:35:01;;;;;;;9.83;8.00;;;25.50;1.00;;;;;;5032098;28;20207;-78
2023/06/12 07:37:29;;;;;;;9.77;7.97;;;25.60;1.00;;;;;;5032624;28;20189;-78
2023/06/12 07:39:54;;;;;;;9.60;8.07;;;25.80;1.00;;;;;;5032901;28;20515;-78
2023/06/12 07:42:20;;;;;;;22.67;7.93;;;25.90;1.00;;;;;;5032183;28;20559;-77
2023/06/12 07:44:45;;;;;;;11.20;8.10;;;26.10;1.00;;;;;;5032755;28;20197;-78
2023/06/12 07:47:11;;;;;;;13.00;8.50;;;26.30;1.00;;;;;;5031917;28;20189;-78
2023/06/12 07:49:36;;;;;;;12.97;7.90;;;26.40;1.00;;;;;;5032261;28;20173;-78
2023/06/12 07:52:02;;;;;;;10.50;7.40;;;26.60;1.00;;;;;;5032333;28;20181;-78
2023/06/12 07:54:28;;;;;;;9.50;8.30;;;26.70;1.00;;;;;;5034584;28;20583;-77
2023/06/12 07:56:53;;;;;;;8.63;7.77;;;26.90;1.00;;;;;;5035659;28;20192;-78
2023/06/12 07:59:19;;;;;;;11.23;7.97;;;27.00;1.00;;;;;;5031569;28;20193;-79
2023/06/12 08:01:45;;;;;;;9.17;8.23;;;27.10;1.00;;;;;;5032325;28;20185;-78
2023/06/12 08:04:10;;;;;;;11.10;8.40;;;27.20;1.00;;;;;;5030956;28;20715;-78
2023/06/12 08:06:38;;;;;;;12.63;8.03;;;27.30;1.00;;;;;;5031543;28;20201;-78
2023/06/12 08:09:05;;;;;;;11.83;8.20;;;27.40;1.00;;;;;;5032319;28;20671;-78
2023/06/12 08:11:31;;;;;;;11.77;8.60;;;27.80;1.00;;;;;;5031969;28;20186;-78
2023/06/12 08:13:56;;;;;;;14.10;8.80;;;27.60;1.00;;;;;;5032433;28;20255;-78
2023/06/12 08:16:23;;;;;;;12.37;8.30;;;27.60;1.00;;;;;;5031672;28;20193;-79
2023/06/12 08:18:48;;;;;;;8.80;7.80;;;27.60;1.00;;;;;;5032393;28;20181;-78
2023/06/12 08:21:14;;;;;;;11.80;8.10;;;27.70;1.00;;;;;;5031642;28;20208;-78
2023/06/12 08:23:40;;;;;;;8.80;7.90;;;28.00;1.00;;;;;;5031571;28;20205;-78
2023/06/12 08:26:05;;;;;;;11.30;8.50;;;28.10;1.00;;;;;;5031837;28;20239;-78
2023/06/12 08:28:33;;;;;;;9.73;8.20;;;28.20;1.00;;;;;;5031271;28;20208;-78
2023/06/12 08:30:59;;;;;;;12.53;7.70;;;28.50;1.00;;;;;;5031868;28;20183;-77
2023/06/12 08:33:25;;;;;;;11.90;8.00;;;28.60;1.00;;;;;;5031430;28;20644;-78
2023/06/12 08:35:50;;;;;;;17.83;9.33;;;28.70;1.00;;;;;;5032006;28;20217;-78
2023/06/12 08:38:16;;;;;;;12.33;9.00;;;28.80;1.00;;;;;;5030967;28;20186;-78
2023/06/12 08:40:42;;;;;;;10.77;8.27;;;28.50;1.00;;;;;;5031573;28;20185;-78
2023/06/12 08:43:08;;;;;;;9.40;8.03;;;28.50;1.00;;;;;;5030505;28;20734;-77
2023/06/12 08:45:37;;;;;;;13.00;8.60;;;29.00;1.00;;;;;;5031000;28;20201;-78
2023/06/12 08:48:05;;;;;;;9.27;8.20;;;29.10;1.00;;;;;;5031320;28;20200;-78
2023/06/12 08:50:33;;;;;;;10.80;8.60;;;29.20;1.00;;;;;;5030619;28;20187;-78
2023/06/12 08:52:59;;;;;;;12.60;8.50;;;29.20;1.00;;;;;;5031302;28;20177;-77
2023/06/12 08:55:26;;;;;;;12.57;8.27;;;29.40;1.00;;;;;;5029755;28;20219;-78
2023/06/12 08:57:51;;;;;;;9.15;8.25;;;29.80;1.00;;;;;;5028282;28;20635;-78
2023/06/12 09:00:17;;;;;;;10.77;7.60;;;32.00;1.00;;;;;;5030636;28;20228;-79
2023/06/12 09:02:46;;;;;;;8.82;7.85;;;30.60;1.00;;;;;;5031203;28;20304;-78
2023/06/12 09:05:19;;;;;;;8.80;7.75;;;30.70;1.00;;;;;;5030756;28;20562;-77
2023/06/12 09:07:47;;;;;;;9.35;8.40;;;31.00;1.00;;;;;;5027221;28;20184;-78
2023/06/12 09:10:16;;;;;;;9.80;8.10;;;31.40;1.00;;;;;;5030567;28;20189;-78
2023/06/12 09:12:44;;;;;;;8.55;7.63;;;32.30;1.00;;;;;;5030076;28;20182;-78
2023/06/12 09:15:16;;;;;;;9.23;7.80;;;32.90;1.00;;;;;;5030329;28;20209;-78
2023/06/12 09:17:42;;;;;;;13.05;7.65;;;33.90;1.00;;;;;;5031036;28;20185;-78
2023/06/12 09:20:14;;;;;;;8.75;7.32;;;35.60;1.00;;;;;;5030482;28;20181;-78
2023/06/12 09:22:40;;;;;;;9.27;7.68;;;35.30;1.00;;;;;;5024475;28;20204;-78
2023/06/12 09:25:06;;;;;;;8.48;7.57;;;36.10;1.00;;;;;;5030581;28;20193;-78
2023/06/12 09:27:41;;;;;;;7.38;6.68;;;36.70;1.00;;;;;;5029581;28;20177;-77
2023/06/12 09:30:08;;;;;;;8.35;7.03;;;36.90;1.00;;;;;;5025986;28;20180;-78
2023/06/12 09:32:33;;;;;;;8.77;7.15;;;37.30;1.00;;;;;;5030339;28;20677;-79
2023/06/12 09:35:01;;;;;;;8.13;6.90;;;37.10;1.00;;;;;;5029926;28;20201;-78
2023/06/12 09:37:26;;;;;;;13.20;6.82;;;36.90;1.00;;;;;;5030589;28;20602;-79
2023/06/12 09:40:08;;;;;;;8.85;6.85;;;36.50;1.00;;;;;;5024721;28;20193;-79
2023/06/12 09:42:38;;;;;;;9.50;6.65;;;37.80;1.00;;;;;;5030766;28;20715;-79
2023/06/12 09:45:20;;;;;;;14.55;7.38;;;37.80;1.00;;;;;;5030412;28;20217;-79
2023/06/12 09:47:48;;;;;;;7.85;7.05;;;38.20;1.00;;;;;;5023115;28;20657;-79
2023/06/12 09:50:15;;;;;;;9.65;7.35;;;37.60;1.00;;;;;;5029221;28;20199;-78
2023/06/12 09:52:43;;;;;;;8.45;6.90;;;36.80;1.00;;;;;;5029186;28;20630;-79
2023/06/12 09:55:17;;;;;;;7.93;7.05;;;36.40;1.00;;;;;;5031271;28;20209;-79
2023/06/12 09:57:50;;;;;;;10.20;6.82;;;36.40;1.00;;;;;;5026274;28;20291;-80
2023/06/12 10:00:17;;;;;;;8.70;6.63;;;37.10;1.00;;;;;;5030619;28;20558;-79
2023/06/12 10:03:05;;;;;;;9.98;6.43;;;37.70;1.00;;;;;;5022783;28;20595;-80
2023/06/12 10:05:35;;;;;;;7.82;6.75;;;38.70;1.00;;;;;;5030138;28;20563;-79
2023/06/12 10:08:03;;;;;;;8.32;7.07;;;39.70;1.00;;;;;;5031773;28;20177;-79
2023/06/12 10:10:30;;;;;;;10.63;7.07;;;39.80;1.00;;;;;;5033461;28;20547;-79
2023/06/12 10:12:56;;;;;;;18.23;6.90;;;40.00;1.00;;;;;;5033205;28;20682;-79
2023/06/12 10:15:22;;;;;;;7.10;6.40;;;39.70;1.00;;;;;;5032543;28;20576;-79
2023/06/12 10:17:51;;;;;;;6.97;6.38;;;39.70;1.00;;;;;;5036760;28;20247;-79
2023/06/12 10:20:18;;;;;;;7.65;6.85;;;39.40;1.00;;;;;;5033652;28;20181;-80
2023/06/12 10:22:45;;;;;;;7.82;6.80;;;39.40;1.00;;;;;;5026238;28;20325;-79
2023/06/12 10:25:10;;;;;;;9.05;6.70;;;39.40;1.00;;;;;;5031606;28;20714;-79
2023/06/12 10:27:37;;;;;;;8.88;6.85;;;39.40;1.00;;;;;;5031525;28;20185;-79
2023/06/12 10:30:04;;;;;;;7.97;6.72;;;39.20;1.00;;;;;;5030496;28;20181;-79
2023/06/12 10:32:31;;;;;;;7.57;6.88;;;39.80;1.00;;;;;;5029780;28;20504;-79
2023/06/12 10:34:58;;;;;;;7.47;6.53;;;40.20;1.00;;;;;;5028621;28;20209;-79
2023/06/12 10:37:25;;;;;;;8.40;6.60;;;40.50;1.00;;;;;;5029563;28;20187;-79
2023/06/12 10:40:15;;;;;;;9.15;6.22;;;41.10;1.00;;;;;;5029543;28;20762;-79
2023/06/12 10:42:42;;;;;;;7.53;6.70;;;41.20;1.00;;;;;;5028959;28;20212;-79
2023/06/12 10:45:32;;;;;;;13.80;6.95;;;40.60;1.00;;;;;;5030071;28;20200;-79
2023/06/12 10:48:06;;;;;;;7.22;6.53;;;40.60;1.00;;;;;;5028859;28;20181;-79
2023/06/12 10:50:37;;;;;;;7.03;6.32;;;40.30;1.00;;;;;;5030943;28;20207;-79
2023/06/12 10:53:12;;;;;;;8.95;6.10;;;39.70;1.00;;;;;;5031872;28;20675;-79
2023/06/12 10:55:37;;;;;;;11.48;6.50;;;39.80;1.00;;;;;;5032699;28;20298;-80
2023/06/12 10:58:08;;;;;;;8.07;7.15;;;39.80;1.00;;;;;;5029611;28;20193;-79
2023/06/12 11:00:42;;;;;;;13.35;7.35;;;38.00;1.00;;;;;;5028514;28;20288;-79
2023/06/12 11:03:12;;;;;;;8.98;7.25;;;37.90;1.00;;;;;;5029186;28;20580;-79
2023/06/12 11:05:39;;;;;;;8.85;6.95;;;38.90;1.00;;;;;;5030480;28;20295;-79
2023/06/12 11:08:09;;;;;;;8.25;7.15;;;39.30;1.00;;;;;;5027826;28;20798;-80
2023/06/12 11:10:35;;;;;;;9.68;6.90;;;39.70;1.00;;;;;;5032092;28;20184;-79
2023/06/12 11:13:02;;;;;;;7.32;6.53;;;40.00;1.00;;;;;;5027021;28;20201;-79
2023/06/12 11:15:28;;;;;;;8.02;6.68;;;40.20;1.00;;;;;;5030593;28;20201;-80
2023/06/12 11:17:54;;;;;;;7.72;6.63;;;40.40;1.00;;;;;;5030135;28;20795;-80
2023/06/12 11:20:22;;;;;;;7.55;6.55;;;40.70;1.00;;;;;;5032770;28;20579;-80
2023/06/12 11:23:00;;;;;;;11.70;6.43;;;41.30;1.00;;;;;;5028697;28;20201;-79
2023/06/12 11:25:26;;;;;;;7.57;6.50;;;42.60;1.00;;;;;;5030648;28;20637;-80
2023/06/12 11:27:53;;;;;;;11.57;6.07;;;43.70;1.00;;;;;;5033728;28;20185;-79
2023/06/12 11:30:19;;;;;;;7.15;6.50;;;42.40;1.00;;;;;;5033830;28;20189;-79
2023/06/12 11:32:44;;;;;;;7.10;6.50;;;40.60;1.00;;;;;;5035136;28;20602;-80
2023/06/12 11:35:11;;;;;;;7.65;6.85;;;39.80;1.00;;;;;;5032096;28;20205;-75
2023/06/12 11:37:39;;;;;;;6.90;6.20;;;40.10;1.00;;;;;;5028444;28;20523;-74
2023/06/12 11:40:11;;;;;;;7.28;6.35;;;40.70;1.00;;;;;;5035089;28;20750;-80
2023/06/12 11:42:44;;;;;;;9.27;6.43;;;41.00;1.00;;;;;;5039792;28;20208;-82
2023/06/12 11:45:15;;;;;;;9.88;7.10;;;41.90;1.00;;;;;;5039529;28;20579;-81
2023/06/12 11:47:43;;;;;;;8.35;7.18;;;42.10;1.00;;;;;;5038167;28;20181;-81
2023/06/12 11:50:11;;;;;;;8.90;6.53;;;41.20;1.00;;;;;;5038139;28;20201;-80
2023/06/12 11:52:39;;;;;;;7.10;6.50;;;41.50;1.00;;;;;;5038839;28;20220;-79
2023/06/12 11:55:08;;;;;;;9.93;6.35;;;41.70;1.00;;;;;;5034740;28;20233;-73
2023/06/12 11:57:35;;;;;;;8.48;6.38;;;42.10;1.00;;;;;;5032598;28;20185;-80
2023/06/12 12:00:16;;;;;;;11.20;5.93;;;42.60;1.00;;;;;;5035480;28;20189;-81
2023/06/12 12:02:51;;;;;;;6.63;5.97;;;43.00;1.00;;;;;;5035715;28;20304;-80
2023/06/12 12:05:19;;;;;;;7.30;6.30;;;43.60;1.00;;;;;;5036669;28;20193;-80
2023/06/12 12:07:48;;;;;;;11.07;6.32;;;43.80;1.00;;;;;;5038561;28;20277;-79
2023/06/12 12:10:14;;;;;;;9.98;6.22;;;42.70;1.00;;;;;;5038323;28;20268;-80
2023/06/12 12:13:00;;;;;;;6.25;5.65;;;41.80;1.00;;;;;;5035404;28;20464;-80
2023/06/12 12:15:29;;;;;;;9.55;5.63;;;41.70;1.00;;;;;;5034488;28;20299;-81
2023/06/12 12:17:55;;;;;;;7.20;5.40;;;41.60;1.00;;;;;;5036967;28;20224;-82
2023/06/12 12:20:26;;;;;;;6.22;5.40;;;42.60;1.00;;;;;;5036561;28;20567;-80
2023/06/12 12:22:59;;;;;;;7.72;5.60;;;43.30;1.00;;;;;;5032647;28;20258;-80
2023/06/12 12:25:28;;;;;;;6.13;5.53;;;43.70;1.00;;;;;;5037101;28;20280;-81
2023/06/12 12:27:56;;;;;;;6.75;5.75;;;43.20;1.00;;;;;;5029643;28;20184;-80
2023/06/12 12:30:22;;;;;;;6.75;5.80;;;43.90;1.00;;;;;;5032779;28;20192;-80
2023/06/12 12:32:53;;;;;;;6.60;5.90;;;44.60;1.00;;;;;;5028684;28;20208;-79
2023/06/12 12:35:19;;;;;;;6.97;5.70;;;44.10;1.00;;;;;;5031514;28;20651;-80
2023/06/12 12:37:45;;;;;;;5.95;5.35;;;43.70;1.00;;;;;;5035694;28;20195;-81
2023/06/12 12:40:13;;;;;;;8.57;5.80;;;44.20;1.00;;;;;;5036999;28;20185;-79
2023/06/12 12:42:49;;;;;;;6.47;5.38;;;44.60;1.00;;;;;;5041584;28;20295;-80
2023/06/12 12:45:16;;;;;;;6.22;5.63;;;43.80;1.00;;;;;;5038942;28;20200;-80
2023/06/12 12:47:52;;;;;;;6.82;5.80;;;42.50;1.00;;;;;;5033661;28;20178;-79
2023/06/12 12:50:19;;;;;;;7.00;5.30;;;43.10;1.00;;;;;;5036235;28;20279;-80
2023/06/12 12:52:45;;;;;;;8.02;5.80;;;43.20;1.00;;;;;;5032653;28;20249;-80
2023/06/12 12:55:11;;;;;;;6.65;5.93;;;42.90;1.00;;;;;;5033573;28;20828;-78